Search for the current weather situation

Metar

Metar
TNCA 220000Z 08017KT 9999 BKN017 27/24 Q1011 A2986 NOSIG
Decoded Metar

TAF

TAF
TNCA 220000Z 08017KT 9999 BKN017 27/24 Q1011 A2986 NOSIG
Decoded TAF
Top